createdAt,value
2022-08-30T00:01:14.575Z,20.50
2022-08-30T00:03:47.702Z,20.50
2022-08-30T00:06:18.074Z,20.50
2022-08-30T00:08:46.121Z,20.60
2022-08-30T00:11:16.174Z,20.60
2022-08-30T00:13:45.194Z,20.50
2022-08-30T00:16:13.141Z,20.50
2022-08-30T00:18:40.797Z,20.40
2022-08-30T00:21:08.364Z,20.30
2022-08-30T00:23:35.987Z,20.30
2022-08-30T00:26:05.826Z,20.30
2022-08-30T00:28:34.152Z,20.20
2022-08-30T00:31:02.612Z,20.20
2022-08-30T00:33:29.890Z,20.20
2022-08-30T00:35:57.048Z,20.30
2022-08-30T00:38:24.461Z,20.30
2022-08-30T00:40:52.865Z,20.30
2022-08-30T00:43:27.825Z,20.30
2022-08-30T00:45:55.935Z,20.30
2022-08-30T00:48:23.820Z,20.30
2022-08-30T00:50:58.373Z,20.40
2022-08-30T00:53:30.933Z,20.30
2022-08-30T00:56:00.498Z,20.30
2022-08-30T00:58:35.552Z,20.30
2022-08-30T01:01:02.919Z,20.30
2022-08-30T01:03:30.972Z,20.20
2022-08-30T01:05:58.952Z,20.20
2022-08-30T01:08:26.150Z,20.20
2022-08-30T01:10:55.044Z,20.20
2022-08-30T01:13:23.802Z,20.20
2022-08-30T01:15:51.626Z,20.10
2022-08-30T01:18:22.278Z,20.00
2022-08-30T01:21:00.872Z,19.90
2022-08-30T01:23:29.711Z,19.70
2022-08-30T01:25:58.371Z,19.70
2022-08-30T01:28:27.682Z,19.80
2022-08-30T01:30:54.887Z,19.80
2022-08-30T01:33:22.674Z,19.80
2022-08-30T01:35:53.976Z,19.80
2022-08-30T01:38:24.891Z,19.80
2022-08-30T01:41:15.630Z,19.80
2022-08-30T01:43:43.963Z,19.70
2022-08-30T01:46:12.421Z,19.70
2022-08-30T01:48:41.715Z,19.70
2022-08-30T01:51:17.436Z,19.70
2022-08-30T01:53:45.805Z,19.80
2022-08-30T01:56:15.587Z,19.70
2022-08-30T01:58:43.593Z,19.80
2022-08-30T02:01:13.440Z,19.80
2022-08-30T02:03:43.200Z,19.80
2022-08-30T02:06:14.293Z,19.80
2022-08-30T02:08:42.013Z,19.70
2022-08-30T02:11:10.182Z,19.70
2022-08-30T02:13:38.335Z,19.70
2022-08-30T02:16:10.408Z,19.60
2022-08-30T02:18:39.365Z,19.50
2022-08-30T02:21:07.682Z,19.50
2022-08-30T02:23:35.441Z,19.50
2022-08-30T02:26:02.779Z,19.60
2022-08-30T02:28:30.040Z,19.60
2022-08-30T02:30:57.412Z,19.60
2022-08-30T02:33:24.707Z,19.60
2022-08-30T02:35:51.800Z,19.50
2022-08-30T02:38:20.139Z,19.50
2022-08-30T02:40:47.539Z,19.50
2022-08-30T02:43:15.057Z,19.60
2022-08-30T02:45:42.457Z,19.50
2022-08-30T02:48:10.167Z,19.50
2022-08-30T02:50:45.264Z,19.50
2022-08-30T02:53:16.296Z,19.50
2022-08-30T02:55:44.032Z,19.40
2022-08-30T02:58:11.559Z,19.40
2022-08-30T03:00:39.783Z,19.30
2022-08-30T03:03:07.716Z,19.30
2022-08-30T03:05:35.342Z,19.30
2022-08-30T03:08:07.968Z,19.30
2022-08-30T03:10:35.192Z,19.20
2022-08-30T03:13:03.533Z,19.20
2022-08-30T03:15:30.862Z,19.20
2022-08-30T03:17:58.620Z,19.20
2022-08-30T03:20:25.991Z,19.20
2022-08-30T03:22:53.200Z,19.20
2022-08-30T03:25:21.254Z,19.10
2022-08-30T03:27:50.746Z,19.10
2022-08-30T03:30:19.852Z,19.10
2022-08-30T03:32:47.841Z,19.10
2022-08-30T03:35:16.853Z,19.10
2022-08-30T03:37:44.537Z,19.10
2022-08-30T03:40:14.135Z,19.10
2022-08-30T03:42:41.618Z,19.10
2022-08-30T03:45:11.782Z,19.20
2022-08-30T03:47:38.854Z,19.10
2022-08-30T03:50:14.927Z,19.10
2022-08-30T03:52:42.529Z,19.10
2022-08-30T03:55:09.705Z,19.10
2022-08-30T03:57:36.816Z,19.10
2022-08-30T04:00:06.873Z,19.00
2022-08-30T04:02:34.057Z,19.00
2022-08-30T04:05:01.266Z,18.90
2022-08-30T04:07:28.364Z,18.80
2022-08-30T04:09:55.545Z,18.80
2022-08-30T04:12:23.442Z,18.70
2022-08-30T04:14:50.629Z,18.70
2022-08-30T04:17:17.763Z,18.80
2022-08-30T04:19:44.853Z,18.80
2022-08-30T04:22:13.335Z,18.80
2022-08-30T04:24:41.784Z,18.80
2022-08-30T04:27:09.431Z,18.70
2022-08-30T04:29:36.952Z,18.70
2022-08-30T04:32:04.458Z,18.70
2022-08-30T04:34:31.792Z,18.70
2022-08-30T04:36:58.922Z,18.70
2022-08-30T04:39:26.090Z,18.60
2022-08-30T04:41:53.299Z,18.70
2022-08-30T04:44:20.351Z,18.60
2022-08-30T04:46:48.242Z,18.60
2022-08-30T04:49:15.659Z,18.50
2022-08-30T04:51:42.711Z,18.50
2022-08-30T04:54:11.772Z,18.50
2022-08-30T04:56:39.230Z,18.50
2022-08-30T04:59:06.610Z,18.50
2022-08-30T05:01:44.765Z,18.60
2022-08-30T05:04:17.148Z,18.60
2022-08-30T05:06:44.594Z,18.50
2022-08-30T05:09:12.003Z,18.50
2022-08-30T05:11:39.168Z,18.50
2022-08-30T05:14:06.572Z,18.50
2022-08-30T05:16:33.797Z,18.50
2022-08-30T05:19:00.931Z,18.50
2022-08-30T05:21:29.586Z,18.40
2022-08-30T05:23:58.555Z,18.50
2022-08-30T05:26:33.336Z,18.50
2022-08-30T05:29:00.843Z,18.40
2022-08-30T05:31:32.027Z,18.50
2022-08-30T05:33:59.836Z,18.50
2022-08-30T05:36:30.414Z,18.60
2022-08-30T05:38:58.033Z,18.60
2022-08-30T05:41:27.136Z,18.60
2022-08-30T05:43:59.932Z,18.60
2022-08-30T05:49:07.309Z,18.60
2022-08-30T05:51:36.203Z,18.60
2022-08-30T05:54:13.620Z,18.60
2022-08-30T05:56:42.444Z,18.60
2022-08-30T05:59:09.972Z,18.70
2022-08-30T06:01:40.672Z,18.60
2022-08-30T06:04:10.312Z,18.60
2022-08-30T06:06:39.284Z,18.50
2022-08-30T06:09:08.364Z,18.50
2022-08-30T06:11:36.492Z,18.50
2022-08-30T06:14:07.138Z,18.50
2022-08-30T06:16:35.859Z,18.50
2022-08-30T06:19:03.090Z,18.50
2022-08-30T06:21:34.615Z,18.70
2022-08-30T06:24:03.356Z,18.70
2022-08-30T06:29:02.936Z,18.90
2022-08-30T06:31:30.348Z,19.00
2022-08-30T06:33:57.502Z,19.00
2022-08-30T06:36:25.832Z,19.10
2022-08-30T06:38:55.302Z,19.20
2022-08-30T06:41:26.713Z,19.30
2022-08-30T06:43:54.698Z,19.40
2022-08-30T06:46:28.940Z,19.50
2022-08-30T06:48:56.957Z,19.60
2022-08-30T06:51:26.490Z,19.70
2022-08-30T06:53:54.235Z,19.80
2022-08-30T06:56:22.649Z,19.80
2022-08-30T06:58:50.382Z,19.80
2022-08-30T07:01:23.441Z,19.90
2022-08-30T07:03:50.975Z,20.00
2022-08-30T07:06:19.186Z,20.10
2022-08-30T07:08:47.215Z,20.20
2022-08-30T07:11:15.289Z,20.20
2022-08-30T07:13:42.377Z,20.20
2022-08-30T07:16:11.881Z,20.30
2022-08-30T07:18:51.761Z,20.30
2022-08-30T07:21:22.189Z,20.30
2022-08-30T07:23:53.598Z,20.40
2022-08-30T07:26:30.472Z,20.40
2022-08-30T07:28:58.832Z,20.40
2022-08-30T07:31:26.482Z,20.40
2022-08-30T07:33:53.774Z,20.50
2022-08-30T07:36:22.187Z,20.50
2022-08-30T07:38:51.078Z,20.60
2022-08-30T07:41:23.807Z,20.60
2022-08-30T07:43:51.167Z,20.70
2022-08-30T07:46:19.062Z,20.90
2022-08-30T07:48:46.690Z,20.90
2022-08-30T07:51:16.735Z,21.00
2022-08-30T07:53:44.111Z,21.00
2022-08-30T07:56:11.413Z,21.10
2022-08-30T07:58:39.830Z,21.20
2022-08-30T08:01:09.146Z,21.20
2022-08-30T08:03:39.936Z,21.30
2022-08-30T08:06:08.409Z,21.30
2022-08-30T08:08:36.617Z,21.30
2022-08-30T08:11:27.498Z,21.30
2022-08-30T08:13:56.630Z,21.40
2022-08-30T08:16:26.942Z,21.40
2022-08-30T08:18:54.736Z,21.50
2022-08-30T08:21:23.555Z,21.50
2022-08-30T08:23:51.541Z,21.50
2022-08-30T08:26:21.915Z,21.50
2022-08-30T08:28:49.110Z,21.50
2022-08-30T08:31:18.994Z,21.60
2022-08-30T08:33:46.246Z,21.60
2022-08-30T08:36:13.566Z,21.70
2022-08-30T08:38:40.830Z,21.70
2022-08-30T08:41:27.982Z,21.80
2022-08-30T08:43:55.167Z,21.90
2022-08-30T08:46:41.264Z,21.90
2022-08-30T08:49:12.711Z,22.00
2022-08-30T08:51:59.298Z,22.10
2022-08-30T08:54:49.440Z,22.20
2022-08-30T08:57:18.471Z,22.30
2022-08-30T08:59:46.591Z,22.40
2022-08-30T09:02:24.866Z,22.50
2022-08-30T09:04:58.000Z,22.50
2022-08-30T09:07:29.765Z,22.60
2022-08-30T09:10:00.779Z,22.60
2022-08-30T09:12:28.518Z,22.80
2022-08-30T09:15:10.511Z,22.80
2022-08-30T09:18:18.964Z,22.80
2022-08-30T09:20:52.557Z,23.00
2022-08-30T09:23:32.404Z,23.10
2022-08-30T09:26:06.604Z,23.10
2022-08-30T09:28:44.058Z,23.20
2022-08-30T09:31:32.596Z,23.30
2022-08-30T09:34:09.402Z,23.40
2022-08-30T09:36:45.221Z,23.40
2022-08-30T09:39:19.382Z,23.40
2022-08-30T09:41:50.256Z,23.50
2022-08-30T09:44:23.937Z,23.50
2022-08-30T09:47:01.620Z,23.60
2022-08-30T09:49:36.881Z,23.60
2022-08-30T09:52:26.196Z,23.60
2022-08-30T09:55:27.867Z,23.60
2022-08-30T09:57:56.217Z,23.60
2022-08-30T10:00:29.113Z,23.60
2022-08-30T10:03:15.897Z,23.60
2022-08-30T10:06:10.976Z,23.70
2022-08-30T10:08:38.544Z,23.80
2022-08-30T10:11:13.539Z,23.80
2022-08-30T10:13:59.235Z,23.90
2022-08-30T10:16:44.934Z,24.00
2022-08-30T10:19:14.808Z,24.10
2022-08-30T10:21:51.255Z,24.10
2022-08-30T10:24:21.857Z,24.10
2022-08-30T10:27:02.614Z,24.10
2022-08-30T10:29:42.267Z,24.10
2022-08-30T10:32:24.359Z,24.10
2022-08-30T10:35:17.473Z,24.20
2022-08-30T10:38:03.337Z,24.40
2022-08-30T10:40:55.970Z,24.80
2022-08-30T10:43:34.587Z,25.10
2022-08-30T10:46:07.042Z,25.40
2022-08-30T10:48:44.460Z,25.70
2022-08-30T10:51:27.420Z,25.90
2022-08-30T10:54:22.295Z,26.00
2022-08-30T10:56:52.030Z,26.20
2022-08-30T10:59:20.690Z,26.30
2022-08-30T11:01:59.464Z,26.50
2022-08-30T11:04:45.823Z,26.60
2022-08-30T11:07:40.854Z,26.80
2022-08-30T11:10:31.994Z,27.10
2022-08-30T11:13:17.711Z,27.30
2022-08-30T11:16:02.958Z,27.30
2022-08-30T11:18:34.039Z,27.40
2022-08-30T11:21:39.876Z,27.70
2022-08-30T11:24:21.969Z,27.90
2022-08-30T11:26:49.132Z,28.20
2022-08-30T11:29:43.390Z,28.00
2022-08-30T11:32:13.122Z,27.60
2022-08-30T11:34:46.734Z,27.30
2022-08-30T11:37:41.098Z,27.00
2022-08-30T11:40:49.375Z,26.60
2022-08-30T11:43:28.592Z,26.50
2022-08-30T11:46:16.520Z,26.40
2022-08-30T11:49:10.057Z,26.40
2022-08-30T11:52:27.760Z,26.40
2022-08-30T11:55:01.577Z,26.40
2022-08-30T11:58:11.467Z,26.70
2022-08-30T12:00:51.322Z,26.90
2022-08-30T12:03:22.435Z,26.90
2022-08-30T12:05:54.297Z,26.80
2022-08-30T12:08:24.225Z,26.60
2022-08-30T12:11:21.255Z,26.60
2022-08-30T12:13:48.317Z,26.90
2022-08-30T12:16:23.505Z,27.20
2022-08-30T12:19:10.115Z,27.60
2022-08-30T12:21:44.949Z,27.80
2022-08-30T12:24:22.243Z,27.90
2022-08-30T12:26:51.509Z,27.80
2022-08-30T12:29:29.909Z,27.70
2022-08-30T12:32:08.438Z,27.60
2022-08-30T12:34:37.188Z,27.40
2022-08-30T12:37:08.728Z,27.30
2022-08-30T12:39:39.366Z,27.30
2022-08-30T12:42:17.576Z,27.20
2022-08-30T12:44:46.298Z,27.10
2022-08-30T12:47:18.155Z,27.10
2022-08-30T12:49:46.491Z,27.20
2022-08-30T12:52:31.676Z,27.30
2022-08-30T12:55:20.746Z,27.50
2022-08-30T12:58:07.500Z,28.10
2022-08-30T13:00:46.155Z,28.30
2022-08-30T13:03:36.858Z,28.10
2022-08-30T13:06:08.025Z,28.00
2022-08-30T13:08:51.767Z,28.00
2022-08-30T13:11:21.910Z,27.80
2022-08-30T13:13:58.470Z,27.60
2022-08-30T13:16:34.748Z,27.30
2022-08-30T13:19:35.668Z,27.00
2022-08-30T13:22:04.620Z,26.70
2022-08-30T13:24:31.769Z,26.60
2022-08-30T13:27:11.942Z,26.30
2022-08-30T13:29:39.053Z,26.20
2022-08-30T13:32:06.228Z,26.00
2022-08-30T13:34:35.553Z,25.90
2022-08-30T13:37:03.633Z,25.90
2022-08-30T13:39:31.814Z,25.80
2022-08-30T13:44:48.117Z,25.70
2022-08-30T13:47:33.023Z,25.50
2022-08-30T13:50:00.640Z,25.30
2022-08-30T13:52:28.183Z,25.20
2022-08-30T13:54:57.157Z,25.20
2022-08-30T14:00:19.281Z,25.40
2022-08-30T14:02:54.104Z,25.80
2022-08-30T14:05:47.804Z,26.00
2022-08-30T14:10:59.360Z,26.20
2022-08-30T14:13:29.307Z,26.30
2022-08-30T14:18:46.995Z,26.10
2022-08-30T14:21:14.411Z,26.10
2022-08-30T14:23:41.672Z,26.00
2022-08-30T14:26:17.887Z,25.90
2022-08-30T14:28:45.680Z,25.70
2022-08-30T14:31:13.380Z,25.70
2022-08-30T14:33:40.661Z,25.70
2022-08-30T14:36:12.953Z,25.80
2022-08-30T14:38:43.074Z,25.90
2022-08-30T14:41:11.133Z,25.90
2022-08-30T14:43:40.714Z,25.70
2022-08-30T14:46:09.142Z,25.50
2022-08-30T14:48:38.493Z,25.60
2022-08-30T14:51:17.178Z,25.70
2022-08-30T14:53:45.776Z,25.50
2022-08-30T14:56:19.615Z,25.50
2022-08-30T14:58:51.711Z,25.40
